createdAt,value
2023-04-28T00:01:11.260Z,5.28
2023-04-28T00:03:37.980Z,8.27
2023-04-28T00:06:04.828Z,7.50
2023-04-28T00:08:31.537Z,9.80
2023-04-28T00:10:58.352Z,8.68
2023-04-28T00:13:24.825Z,7.65
2023-04-28T00:15:53.227Z,7.22
2023-04-28T00:18:20.361Z,8.80
2023-04-28T00:20:47.231Z,10.52
2023-04-28T00:23:13.868Z,7.97
2023-04-28T00:25:40.369Z,5.53
2023-04-28T00:28:06.964Z,6.05
2023-04-28T00:30:33.432Z,12.07
2023-04-28T00:32:59.968Z,8.93
2023-04-28T00:35:26.564Z,9.95
2023-04-28T00:37:52.976Z,9.20
2023-04-28T00:40:19.455Z,8.27
2023-04-28T00:42:45.912Z,7.18
2023-04-28T00:45:12.405Z,7.88
2023-04-28T00:47:38.951Z,7.03
2023-04-28T00:50:06.519Z,6.78
2023-04-28T00:52:33.069Z,9.73
2023-04-28T00:54:59.689Z,11.00
2023-04-28T00:57:26.216Z,5.95
2023-04-28T00:59:53.093Z,10.75
2023-04-28T01:02:20.047Z,6.55
2023-04-28T01:04:46.856Z,8.05
2023-04-28T01:07:13.462Z,7.60
2023-04-28T01:09:41.081Z,9.52
2023-04-28T01:12:07.738Z,6.80
2023-04-28T01:14:34.281Z,8.07
2023-04-28T01:17:01.169Z,5.45
2023-04-28T01:19:28.281Z,7.38
2023-04-28T01:21:54.783Z,10.35
2023-04-28T01:24:21.285Z,7.70
2023-04-28T01:26:47.837Z,7.78
2023-04-28T01:29:14.354Z,6.30
2023-04-28T01:31:41.277Z,6.07
2023-04-28T01:34:08.038Z,11.20
2023-04-28T01:36:37.251Z,7.70
2023-04-28T01:39:04.559Z,7.95
2023-04-28T01:41:31.126Z,19.35
2023-04-28T01:43:57.684Z,6.30
2023-04-28T01:46:25.217Z,7.43
2023-04-28T01:48:51.844Z,6.10
2023-04-28T01:51:18.304Z,10.15
2023-04-28T01:53:44.824Z,8.23
2023-04-28T01:56:11.407Z,8.23
2023-04-28T01:58:37.899Z,10.57
2023-04-28T02:01:04.864Z,8.93
2023-04-28T02:03:31.538Z,10.23
2023-04-28T02:05:58.226Z,10.13
2023-04-28T02:08:24.689Z,10.43
2023-04-28T02:10:51.699Z,11.85
2023-04-28T02:13:18.187Z,8.43
2023-04-28T02:15:44.684Z,10.02
2023-04-28T02:18:11.263Z,11.25
2023-04-28T02:20:38.065Z,8.15
2023-04-28T02:23:06.226Z,5.93
2023-04-28T02:25:32.637Z,11.60
2023-04-28T02:27:59.368Z,10.95
2023-04-28T02:30:25.891Z,9.25
2023-04-28T02:32:52.384Z,9.20
2023-04-28T02:35:18.963Z,9.60
2023-04-28T02:37:46.465Z,7.28
2023-04-28T02:40:13.262Z,7.63
2023-04-28T02:42:39.967Z,7.68
2023-04-28T02:45:06.853Z,7.82
2023-04-28T02:47:33.373Z,6.28
2023-04-28T02:49:59.832Z,5.63
2023-04-28T02:52:26.674Z,10.50
2023-04-28T02:54:57.134Z,8.50
2023-04-28T02:57:24.275Z,15.13
2023-04-28T02:59:50.736Z,8.82
2023-04-28T03:02:17.336Z,10.18
2023-04-28T03:04:43.932Z,8.90
2023-04-28T03:07:10.518Z,10.32
2023-04-28T03:09:36.925Z,11.93
2023-04-28T03:12:03.636Z,7.40
2023-04-28T03:14:30.122Z,8.48
2023-04-28T03:16:57.973Z,8.05
2023-04-28T03:19:24.540Z,10.85
2023-04-28T03:21:51.124Z,9.13
2023-04-28T03:24:17.954Z,9.68
2023-04-28T03:26:44.799Z,11.90
2023-04-28T03:29:11.522Z,9.35
2023-04-28T03:31:38.179Z,14.82
2023-04-28T03:34:04.810Z,14.25
2023-04-28T03:36:32.079Z,13.18
2023-04-28T03:38:58.577Z,14.40
2023-04-28T03:41:25.049Z,14.50
2023-04-28T03:43:53.341Z,12.70
2023-04-28T03:46:20.073Z,15.52
2023-04-28T03:48:46.690Z,18.20
2023-04-28T03:51:13.319Z,15.73
2023-04-28T03:53:39.856Z,13.80
2023-04-28T03:56:06.591Z,15.50
2023-04-28T03:58:33.108Z,13.27
2023-04-28T04:01:00.978Z,18.17
2023-04-28T04:03:27.754Z,21.90
2023-04-28T04:05:55.776Z,17.17
2023-04-28T04:08:22.341Z,11.70
2023-04-28T04:10:48.829Z,15.15
2023-04-28T04:13:15.511Z,13.07
2023-04-28T04:15:42.045Z,19.73
2023-04-28T04:18:08.739Z,13.77
2023-04-28T04:20:36.027Z,15.07
2023-04-28T04:23:03.697Z,17.35
2023-04-28T04:25:30.673Z,16.00
2023-04-28T04:27:57.130Z,17.95
2023-04-28T04:30:23.673Z,22.67
2023-04-28T04:32:50.485Z,17.50
2023-04-28T04:35:17.204Z,19.33
2023-04-28T04:37:48.825Z,13.95
2023-04-28T04:40:15.609Z,17.15
2023-04-28T04:42:47.048Z,25.67
2023-04-28T04:45:13.648Z,24.45
2023-04-28T04:47:40.450Z,19.83
2023-04-28T04:50:08.376Z,19.80
2023-04-28T04:52:35.196Z,20.67
2023-04-28T04:55:07.793Z,16.33
2023-04-28T04:57:34.297Z,29.58
2023-04-28T05:00:00.880Z,22.90
2023-04-28T05:02:27.391Z,17.80
2023-04-28T05:05:01.859Z,22.48
2023-04-28T05:07:35.798Z,21.67
2023-04-28T05:10:02.336Z,21.75
2023-04-28T05:12:28.906Z,18.15
2023-04-28T05:14:55.357Z,17.40
2023-04-28T05:17:21.831Z,20.88
2023-04-28T05:19:48.383Z,15.75
2023-04-28T05:22:14.873Z,15.27
2023-04-28T05:24:41.305Z,13.00
2023-04-28T05:27:07.822Z,17.90
2023-04-28T05:29:34.465Z,13.95
2023-04-28T05:32:01.039Z,14.02
2023-04-28T05:34:27.563Z,15.80
2023-04-28T05:36:54.387Z,19.10
2023-04-28T05:39:21.006Z,16.52
2023-04-28T05:41:47.471Z,16.23
2023-04-28T05:44:14.021Z,15.30
2023-04-28T05:46:40.634Z,18.80
2023-04-28T05:49:07.333Z,18.05
2023-04-28T05:51:34.080Z,18.80
2023-04-28T05:54:00.696Z,19.27
2023-04-28T05:56:27.201Z,19.33
2023-04-28T05:58:53.691Z,12.73
2023-04-28T06:01:20.190Z,16.17
2023-04-28T06:03:46.988Z,18.58
2023-04-28T06:06:13.710Z,24.17
2023-04-28T06:08:40.712Z,21.83
2023-04-28T06:11:07.251Z,15.68
2023-04-28T06:13:33.727Z,16.00
2023-04-28T06:16:00.381Z,19.17
2023-04-28T06:18:27.157Z,18.05
2023-04-28T06:20:53.772Z,15.00
2023-04-28T06:23:20.206Z,13.43
2023-04-28T06:25:46.742Z,17.63
2023-04-28T06:28:15.030Z,16.08
2023-04-28T06:30:42.086Z,17.10
2023-04-28T06:33:09.180Z,14.57
2023-04-28T06:35:36.567Z,17.20
2023-04-28T06:38:04.624Z,12.38
2023-04-28T06:40:31.156Z,11.85
2023-04-28T06:42:57.592Z,11.80
2023-04-28T06:45:24.035Z,10.60
2023-04-28T06:47:51.446Z,19.35
2023-04-28T06:50:18.043Z,18.05
2023-04-28T06:52:44.621Z,16.50
2023-04-28T06:55:14.266Z,16.05
2023-04-28T06:57:42.177Z,11.00
2023-04-28T07:00:08.934Z,16.33
2023-04-28T07:02:36.970Z,13.40
2023-04-28T07:05:04.491Z,11.93
2023-04-28T07:07:31.058Z,10.98
2023-04-28T07:09:58.980Z,15.68
2023-04-28T07:12:25.488Z,15.07
2023-04-28T07:14:52.098Z,15.93
2023-04-28T07:17:18.609Z,14.20
2023-04-28T07:19:45.082Z,11.25
2023-04-28T07:22:11.625Z,9.43
2023-04-28T07:24:38.228Z,15.02
2023-04-28T07:27:05.091Z,15.75
2023-04-28T07:29:35.127Z,12.63
2023-04-28T07:32:05.267Z,12.90
2023-04-28T07:34:33.307Z,13.30
2023-04-28T07:37:00.803Z,13.68
2023-04-28T07:39:27.297Z,11.82
2023-04-28T07:41:54.101Z,15.23
2023-04-28T07:44:21.028Z,10.55
2023-04-28T07:46:47.508Z,10.50
2023-04-28T07:49:13.957Z,13.02
2023-04-28T07:51:40.510Z,11.27
2023-04-28T07:54:07.290Z,11.95
2023-04-28T07:56:33.766Z,9.93
2023-04-28T07:59:00.425Z,11.77
2023-04-28T08:01:27.012Z,16.92
2023-04-28T08:03:53.753Z,12.05
2023-04-28T08:06:22.213Z,9.05
2023-04-28T08:08:49.176Z,16.35
2023-04-28T08:11:15.632Z,10.75
2023-04-28T08:13:42.225Z,12.15
2023-04-28T08:16:08.758Z,14.07
2023-04-28T08:18:35.693Z,9.55
2023-04-28T08:21:02.341Z,11.80
2023-04-28T08:23:30.730Z,14.40
2023-04-28T08:25:57.501Z,8.23
2023-04-28T08:28:24.213Z,11.23
2023-04-28T08:30:51.216Z,12.10
2023-04-28T08:33:18.750Z,18.55
2023-04-28T08:35:45.349Z,15.45
2023-04-28T08:38:14.209Z,15.45
2023-04-28T08:40:42.873Z,17.15
2023-04-28T08:43:13.914Z,13.77
2023-04-28T08:45:43.170Z,15.13
2023-04-28T08:48:28.789Z,19.00
2023-04-28T08:50:55.392Z,20.70
2023-04-28T08:53:25.293Z,8.77
2023-04-28T08:55:55.470Z,19.20
2023-04-28T08:58:22.950Z,21.92
2023-04-28T09:00:49.728Z,15.93
2023-04-28T09:03:16.450Z,14.52
2023-04-28T09:05:43.257Z,15.65
2023-04-28T09:08:11.826Z,12.07
2023-04-28T09:10:38.591Z,15.30
2023-04-28T09:13:05.357Z,13.48
2023-04-28T09:15:36.528Z,15.57
2023-04-28T09:18:07.031Z,9.60
2023-04-28T09:20:34.364Z,17.10
2023-04-28T09:23:13.229Z,17.38
2023-04-28T09:25:39.931Z,14.95
2023-04-28T09:28:22.401Z,15.95
2023-04-28T09:30:49.178Z,16.70
2023-04-28T09:33:18.345Z,12.13
2023-04-28T09:35:48.526Z,12.70
2023-04-28T09:38:15.727Z,14.48
2023-04-28T09:40:59.068Z,15.48
2023-04-28T09:43:29.803Z,17.55
2023-04-28T09:45:57.189Z,15.80
2023-04-28T09:48:27.712Z,15.30
2023-04-28T09:50:55.311Z,12.82
2023-04-28T09:53:23.096Z,11.40
2023-04-28T09:55:50.635Z,13.82
2023-04-28T09:58:18.617Z,13.95
2023-04-28T10:00:45.448Z,17.00
2023-04-28T10:03:12.444Z,14.15
2023-04-28T10:05:39.899Z,17.15
2023-04-28T10:08:06.501Z,10.55
2023-04-28T10:10:33.440Z,16.20
2023-04-28T10:13:01.716Z,17.75
2023-04-28T10:15:28.131Z,10.85
2023-04-28T10:17:55.431Z,20.30
2023-04-28T10:20:23.015Z,14.65
2023-04-28T10:22:50.075Z,16.25
2023-04-28T10:25:27.378Z,12.02
2023-04-28T10:27:54.135Z,13.90
2023-04-28T10:30:27.265Z,17.27
2023-04-28T10:33:14.316Z,12.77
2023-04-28T10:35:45.217Z,16.98
2023-04-28T10:38:15.418Z,20.77
2023-04-28T10:40:45.718Z,15.23
2023-04-28T10:43:12.901Z,14.60
2023-04-28T10:45:56.729Z,18.83
2023-04-28T10:48:33.331Z,16.20
2023-04-28T10:51:05.982Z,13.03
2023-04-28T10:53:44.787Z,15.70
2023-04-28T10:56:11.549Z,15.48
2023-04-28T10:58:42.754Z,18.85
2023-04-28T11:01:21.543Z,18.52
2023-04-28T11:03:52.109Z,14.27
2023-04-28T11:06:26.152Z,11.63
2023-04-28T11:08:57.604Z,20.63
2023-04-28T11:11:25.866Z,19.77
2023-04-28T11:13:54.277Z,14.90
2023-04-28T11:16:22.402Z,16.63
2023-04-28T11:18:55.486Z,16.08
2023-04-28T11:21:23.381Z,15.13
2023-04-28T11:23:49.977Z,22.90
2023-04-28T11:26:17.238Z,15.88
2023-04-28T11:28:47.758Z,20.42
2023-04-28T11:31:18.973Z,15.25
2023-04-28T11:33:46.610Z,16.15
2023-04-28T11:36:26.502Z,17.83
2023-04-28T11:38:53.010Z,16.75
2023-04-28T11:41:19.560Z,21.77
2023-04-28T11:43:47.704Z,17.85
2023-04-28T11:46:21.859Z,18.52
2023-04-28T11:48:48.944Z,21.85
2023-04-28T11:51:28.376Z,21.60
2023-04-28T11:53:55.216Z,17.83
2023-04-28T11:56:21.780Z,21.05
2023-04-28T11:59:00.664Z,23.63
2023-04-28T12:01:28.179Z,21.63
2023-04-28T12:03:55.591Z,20.30
2023-04-28T12:06:22.511Z,18.05
2023-04-28T12:08:49.499Z,27.02
2023-04-28T12:11:20.066Z,22.30
2023-04-28T12:14:05.891Z,25.75
2023-04-28T12:16:43.301Z,29.08
2023-04-28T12:19:11.121Z,26.92
2023-04-28T12:21:39.129Z,26.20
2023-04-28T12:24:17.264Z,28.48
2023-04-28T12:26:43.943Z,23.92
2023-04-28T12:29:10.790Z,29.38
2023-04-28T12:31:50.737Z,27.25
2023-04-28T12:34:17.252Z,27.33
2023-04-28T12:36:46.413Z,29.23
2023-04-28T12:39:20.089Z,23.20
2023-04-28T12:41:46.853Z,25.63
2023-04-28T12:44:13.328Z,28.77
2023-04-28T12:46:39.930Z,31.23
2023-04-28T12:49:06.685Z,26.77
2023-04-28T12:51:36.593Z,26.60
2023-04-28T12:54:04.303Z,32.78
2023-04-28T12:56:30.835Z,32.97
2023-04-28T12:58:57.336Z,28.60
2023-04-28T13:01:24.956Z,28.17
2023-04-28T13:03:53.752Z,35.55
2023-04-28T13:06:20.538Z,29.73
2023-04-28T13:08:47.034Z,30.85
2023-04-28T13:13:46.310Z,31.23
2023-04-28T13:16:14.410Z,29.65
2023-04-28T13:18:40.999Z,28.92
2023-04-28T13:21:07.522Z,30.70
2023-04-28T13:23:34.073Z,34.97
2023-04-28T13:26:01.041Z,28.38
2023-04-28T13:28:28.971Z,31.08
2023-04-28T13:30:55.774Z,30.13
2023-04-28T13:33:23.688Z,31.73
2023-04-28T13:35:50.190Z,28.00
2023-04-28T13:38:17.099Z,32.22
2023-04-28T13:40:43.726Z,35.92
2023-04-28T13:43:10.321Z,35.00
2023-04-28T13:45:36.942Z,41.83
2023-04-28T13:48:04.034Z,29.50
2023-04-28T13:50:30.584Z,37.55
2023-04-28T13:52:57.216Z,38.58
2023-04-28T13:55:27.780Z,28.00
2023-04-28T13:57:55.287Z,30.60
2023-04-28T14:00:22.237Z,31.67
2023-04-28T14:02:49.825Z,34.42
2023-04-28T14:05:19.241Z,32.65
2023-04-28T14:07:46.012Z,33.47
2023-04-28T14:10:12.608Z,36.15
2023-04-28T14:12:39.100Z,36.30
2023-04-28T14:15:06.196Z,35.40
2023-04-28T14:17:34.801Z,32.10
2023-04-28T14:20:01.993Z,32.38
2023-04-28T14:22:28.764Z,34.33
2023-04-28T14:24:55.516Z,35.50
2023-04-28T14:27:22.331Z,40.78
2023-04-28T14:29:49.165Z,36.67
2023-04-28T14:32:16.621Z,33.80
2023-04-28T14:34:43.249Z,31.13
2023-04-28T14:37:09.823Z,37.63
2023-04-28T14:39:37.217Z,31.30
2023-04-28T14:42:03.966Z,29.00
2023-04-28T14:44:30.576Z,38.55
2023-04-28T14:46:57.137Z,35.88
2023-04-28T14:49:23.766Z,38.28
2023-04-28T14:51:50.470Z,37.78
2023-04-28T14:54:17.211Z,35.25
2023-04-28T14:56:44.639Z,43.35
2023-04-28T14:59:11.680Z,38.20
2023-04-28T15:01:39.573Z,35.72
2023-04-28T15:04:06.451Z,36.22
2023-04-28T15:06:34.139Z,31.98
2023-04-28T15:09:00.641Z,31.63
2023-04-28T15:11:27.281Z,37.83
2023-04-28T15:13:53.922Z,34.28
2023-04-28T15:16:20.623Z,37.03
2023-04-28T15:18:48.447Z,33.28
2023-04-28T15:21:14.968Z,35.83
2023-04-28T15:23:41.558Z,38.67
2023-04-28T15:26:08.958Z,35.10
2023-04-28T15:28:35.425Z,33.42
2023-04-28T15:31:03.056Z,33.67
2023-04-28T15:33:29.595Z,28.83
2023-04-28T15:35:56.231Z,31.33
2023-04-28T15:38:22.798Z,31.95
2023-04-28T15:40:49.802Z,35.63
2023-04-28T15:43:16.344Z,34.05
2023-04-28T15:45:44.896Z,30.55
2023-04-28T15:48:12.144Z,27.35
2023-04-28T15:50:38.893Z,36.00
2023-04-28T15:53:05.344Z,34.30
2023-04-28T15:55:31.986Z,37.13
2023-04-28T15:58:00.835Z,31.92
2023-04-28T16:00:30.954Z,35.50
2023-04-28T16:02:57.522Z,32.40
2023-04-28T16:05:42.590Z,32.45
2023-04-28T16:08:09.536Z,30.13
2023-04-28T16:10:36.128Z,32.00
2023-04-28T16:13:04.388Z,32.20
2023-04-28T16:15:30.885Z,38.88
2023-04-28T16:17:57.680Z,37.72
2023-04-28T16:20:24.224Z,33.10
2023-04-28T16:22:50.804Z,30.50
2023-04-28T16:25:17.291Z,31.17
2023-04-28T16:27:43.883Z,32.67
2023-04-28T16:30:10.775Z,34.10
2023-04-28T16:32:38.451Z,48.72
2023-04-28T16:35:06.441Z,38.65
2023-04-28T16:37:33.107Z,44.35
2023-04-28T16:39:59.794Z,30.98
2023-04-28T16:42:26.538Z,39.17
2023-04-28T16:44:53.369Z,45.47
2023-04-28T16:47:20.080Z,41.22
2023-04-28T16:49:46.647Z,45.50
2023-04-28T16:52:13.522Z,50.53
2023-04-28T16:54:40.050Z,53.30
2023-04-28T16:57:06.635Z,50.58
2023-04-28T16:59:34.006Z,48.90
2023-04-28T17:02:01.867Z,44.80
2023-04-28T17:04:28.474Z,41.95
2023-04-28T17:06:55.025Z,41.00
2023-04-28T17:09:22.457Z,34.95
2023-04-28T17:11:49.390Z,38.83
2023-04-28T17:14:16.132Z,35.25
2023-04-28T17:16:45.764Z,43.90
2023-04-28T17:19:12.440Z,42.40
2023-04-28T17:21:39.075Z,38.35
2023-04-28T17:24:05.719Z,38.63
2023-04-28T17:26:32.444Z,31.42
2023-04-28T17:28:59.824Z,25.00
2023-04-28T17:31:26.666Z,21.75
2023-04-28T17:33:53.829Z,22.08
2023-04-28T17:36:23.239Z,20.20
2023-04-28T17:38:52.432Z,18.15
2023-04-28T17:41:22.812Z,21.40
2023-04-28T17:43:51.456Z,13.88
2023-04-28T17:46:18.367Z,14.65
2023-04-28T17:48:45.028Z,17.27
2023-04-28T17:51:11.623Z,20.65
2023-04-28T17:53:39.265Z,20.02
2023-04-28T17:56:06.076Z,20.45
2023-04-28T17:58:33.721Z,25.15
2023-04-28T18:01:01.137Z,33.40
2023-04-28T18:03:27.694Z,28.70
2023-04-28T18:05:54.329Z,27.90
2023-04-28T18:08:20.766Z,27.98
2023-04-28T18:10:47.241Z,30.75
2023-04-28T18:13:13.979Z,31.05
2023-04-28T18:15:40.803Z,33.80
2023-04-28T18:18:07.403Z,40.38
2023-04-28T18:20:33.810Z,39.95
2023-04-28T18:23:00.373Z,43.97
2023-04-28T18:25:26.922Z,38.28
2023-04-28T18:27:53.993Z,37.67
2023-04-28T18:30:20.654Z,42.25
2023-04-28T18:32:48.839Z,47.58
2023-04-28T18:35:15.989Z,39.95
2023-04-28T18:37:45.916Z,39.83
2023-04-28T18:40:12.394Z,44.28
2023-04-28T18:42:38.894Z,41.15
2023-04-28T18:45:06.441Z,39.08
2023-04-28T18:47:32.892Z,48.55
2023-04-28T18:50:00.024Z,45.75
2023-04-28T18:52:26.739Z,52.80
2023-04-28T18:54:53.210Z,40.83
2023-04-28T18:57:19.699Z,42.70
2023-04-28T18:59:46.347Z,48.90
2023-04-28T19:02:12.859Z,45.05
2023-04-28T19:04:42.118Z,46.33
2023-04-28T19:07:08.845Z,43.97
2023-04-28T19:09:35.327Z,42.53
2023-04-28T19:12:01.803Z,44.95
2023-04-28T19:14:28.360Z,44.17
2023-04-28T19:16:55.024Z,47.40
2023-04-28T19:19:21.697Z,36.53
2023-04-28T19:21:50.006Z,44.25
2023-04-28T19:24:16.507Z,39.67
2023-04-28T19:26:42.946Z,50.95
2023-04-28T19:29:09.474Z,42.50
2023-04-28T19:31:36.480Z,50.20
2023-04-28T19:34:03.420Z,41.33
2023-04-28T19:36:30.077Z,47.15
2023-04-28T19:38:56.547Z,44.08
2023-04-28T19:41:23.032Z,46.08
2023-04-28T19:43:49.520Z,40.63
2023-04-28T19:46:17.040Z,36.33
2023-04-28T19:48:45.966Z,41.30
2023-04-28T19:51:14.150Z,41.47
2023-04-28T19:53:41.021Z,43.80
2023-04-28T19:56:10.095Z,43.25
2023-04-28T19:58:37.011Z,45.55
2023-04-28T20:01:05.953Z,36.40
2023-04-28T20:03:32.708Z,52.63
2023-04-28T20:05:59.408Z,40.20
2023-04-28T20:08:27.566Z,42.58
2023-04-28T20:10:54.867Z,45.75
2023-04-28T20:13:21.300Z,44.03
2023-04-28T20:15:47.899Z,39.17
2023-04-28T20:18:14.511Z,40.13
2023-04-28T20:20:41.077Z,42.95
2023-04-28T20:23:07.615Z,40.22
2023-04-28T20:25:35.942Z,45.88
2023-04-28T20:28:02.441Z,48.17
2023-04-28T20:30:29.107Z,45.83
2023-04-28T20:32:55.695Z,48.53
2023-04-28T20:35:23.060Z,46.13
2023-04-28T20:37:49.553Z,44.22
2023-04-28T20:40:16.031Z,46.95
2023-04-28T20:42:43.312Z,45.58
2023-04-28T20:45:10.047Z,51.83
2023-04-28T20:47:36.701Z,53.17
2023-04-28T20:50:03.592Z,44.80
2023-04-28T20:52:30.088Z,46.13
2023-04-28T20:54:57.037Z,43.88
2023-04-28T20:57:23.447Z,42.33
2023-04-28T20:59:50.054Z,49.20
2023-04-28T21:02:16.701Z,47.28
2023-04-28T21:04:43.187Z,45.20
2023-04-28T21:07:09.692Z,46.40
2023-04-28T21:09:37.507Z,48.90
2023-04-28T21:12:04.437Z,46.95
2023-04-28T21:14:34.112Z,47.45
2023-04-28T21:17:02.357Z,46.55
2023-04-28T21:19:32.138Z,49.53
2023-04-28T21:21:58.845Z,47.88
2023-04-28T21:24:25.320Z,50.63
2023-04-28T21:26:51.996Z,50.28
2023-04-28T21:29:18.639Z,55.67
2023-04-28T21:31:45.857Z,52.28
2023-04-28T21:34:12.551Z,55.95
2023-04-28T21:36:39.021Z,50.17
2023-04-28T21:39:06.073Z,56.63
2023-04-28T21:41:32.686Z,62.42
2023-04-28T21:43:59.596Z,59.45
2023-04-28T21:46:26.277Z,58.97
2023-04-28T21:48:53.020Z,59.25
2023-04-28T21:51:19.493Z,59.30
2023-04-28T21:53:45.950Z,56.00
2023-04-28T21:56:12.428Z,60.20
2023-04-28T21:58:39.237Z,57.28
2023-04-28T22:01:06.505Z,57.85
2023-04-28T22:03:35.312Z,49.45
2023-04-28T22:06:02.216Z,56.72
2023-04-28T22:08:30.637Z,64.10
2023-04-28T22:10:57.829Z,56.72
2023-04-28T22:13:24.322Z,56.00
2023-04-28T22:15:50.917Z,51.10
2023-04-28T22:18:17.638Z,58.33
2023-04-28T22:20:44.462Z,62.50
2023-04-28T22:23:10.949Z,53.50
2023-04-28T22:25:37.423Z,51.65
2023-04-28T22:28:04.857Z,50.30
2023-04-28T22:30:31.831Z,53.00
2023-04-28T22:32:58.439Z,53.67
2023-04-28T22:35:25.084Z,46.60
2023-04-28T22:37:51.535Z,50.33
2023-04-28T22:40:18.026Z,53.53
2023-04-28T22:42:44.588Z,50.10
2023-04-28T22:45:11.791Z,52.67
2023-04-28T22:47:40.525Z,50.40
2023-04-28T22:50:08.464Z,45.75
2023-04-28T22:52:35.322Z,53.38
2023-04-28T22:55:01.853Z,55.05
2023-04-28T22:57:28.596Z,48.65
2023-04-28T22:59:55.399Z,51.35
2023-04-28T23:02:23.088Z,44.78
2023-04-28T23:04:50.027Z,42.63
2023-04-28T23:07:16.953Z,50.05
2023-04-28T23:09:43.445Z,47.88
2023-04-28T23:12:09.870Z,44.70
2023-04-28T23:14:36.434Z,45.83
2023-04-28T23:17:02.930Z,52.85
2023-04-28T23:19:29.339Z,44.10
2023-04-28T23:21:55.756Z,42.20
2023-04-28T23:24:22.202Z,42.30
2023-04-28T23:26:48.676Z,52.13
2023-04-28T23:29:15.146Z,55.95
2023-04-28T23:31:41.614Z,43.47
2023-04-28T23:34:08.362Z,52.80
2023-04-28T23:36:35.027Z,52.75
2023-04-28T23:39:02.206Z,50.28
2023-04-28T23:41:28.808Z,49.45
2023-04-28T23:43:55.282Z,43.22
2023-04-28T23:46:22.064Z,45.03
2023-04-28T23:48:48.533Z,47.38
2023-04-28T23:51:15.053Z,46.30
2023-04-28T23:53:41.946Z,50.58
2023-04-28T23:56:08.712Z,47.25
2023-04-28T23:58:35.192Z,48.47
